Time;durP1;ratioP1;P1;durP2;ratioP2;P2;SDS_P1;SDS_P2;PMS_P1;PMS_P2;Temp;Humidity;BMP_temperature;BMP_pressure;BME280_temperature;BME280_humidity;BME280_pressure;Samples;Min_cycle;Max_cycle;Signal;HPM_P1;HPM_P2
2023/06/12 00:00:26;;;;;;;8.88;3.50;;;;;;;18.81;53.33;101867.09;7389176;19;20482;-58
2023/06/12 00:02:57;;;;;;;8.07;3.00;;;;;;;18.81;53.58;101862.63;7389504;19;20029;-59
2023/06/12 00:05:27;;;;;;;9.32;3.28;;;;;;;18.71;53.78;101861.75;7390861;19;20019;-59
2023/06/12 00:07:56;;;;;;;16.85;3.40;;;;;;;18.67;54.12;101861.13;7391505;19;20021;-59
2023/06/12 00:10:24;;;;;;;8.50;3.10;;;;;;;18.70;54.07;101860.91;7390125;19;20023;-59
2023/06/12 00:12:52;;;;;;;8.75;3.35;;;;;;;18.68;54.06;101862.00;7389006;19;20031;-59
2023/06/12 00:15:19;;;;;;;9.07;2.97;;;;;;;18.61;54.54;101866.19;7390191;19;20027;-59
2023/06/12 00:17:48;;;;;;;6.38;3.20;;;;;;;18.51;54.43;101868.88;7391014;19;20014;-59
2023/06/12 00:20:15;;;;;;;8.27;2.85;;;;;;;18.50;54.71;101869.84;7388830;19;20592;-59
2023/06/12 00:22:43;;;;;;;10.68;3.30;;;;;;;18.49;55.10;101866.31;7388285;19;20048;-58
2023/06/12 00:25:10;;;;;;;7.93;3.15;;;;;;;18.40;55.33;101869.84;7390345;19;20011;-59
2023/06/12 00:27:38;;;;;;;8.50;3.15;;;;;;;18.35;55.72;101869.38;7390835;19;20086;-59
2023/06/12 00:30:06;;;;;;;7.28;2.92;;;;;;;18.40;55.02;101871.69;7388708;19;20015;-59
2023/06/12 00:32:33;;;;;;;10.02;3.20;;;;;;;18.34;55.30;101878.41;7388887;19;20039;-58
2023/06/12 00:35:01;;;;;;;9.65;3.30;;;;;;;18.36;55.32;101867.56;7389714;19;20018;-58
2023/06/12 00:37:29;;;;;;;10.43;3.40;;;;;;;18.27;55.80;101871.88;7388465;19;20107;-60
2023/06/12 00:39:56;;;;;;;6.20;3.05;;;;;;;18.26;56.13;101876.41;7389799;19;20014;-59
2023/06/12 00:42:30;;;;;;;7.55;3.20;;;;;;;18.18;55.98;101870.88;7387873;19;20022;-59
2023/06/12 00:44:57;;;;;;;7.20;3.40;;;;;;;18.13;56.51;101874.97;7389848;19;20018;-60
2023/06/12 00:47:25;;;;;;;7.65;3.13;;;;;;;18.07;56.86;101873.66;7389525;19;20044;-58
2023/06/12 00:49:53;;;;;;;9.18;3.30;;;;;;;18.10;56.69;101875.22;7389601;19;20095;-58
2023/06/12 00:52:24;;;;;;;6.85;3.30;;;;;;;18.06;56.48;101874.66;7387416;19;20046;-57
2023/06/12 00:54:53;;;;;;;10.68;3.25;;;;;;;17.99;57.13;101868.13;7389362;19;20498;-57
2023/06/12 00:57:22;;;;;;;9.07;3.58;;;;;;;17.98;57.02;101864.59;7389282;19;20015;-56
2023/06/12 00:59:49;;;;;;;12.27;3.40;;;;;;;18.00;57.08;101867.13;7393745;19;20039;-56
2023/06/12 01:02:18;;;;;;;8.13;3.08;;;;;;;17.99;57.18;101862.75;7394280;19;20483;-56
2023/06/12 01:04:46;;;;;;;12.00;3.85;;;;;;;17.94;57.36;101860.50;7397010;19;20023;-56
2023/06/12 01:07:44;;;;;;;9.27;3.65;;;;;;;17.97;57.04;101862.91;7397126;19;20496;-56
2023/06/12 01:10:20;;;;;;;9.10;3.70;;;;;;;17.84;57.59;101867.63;7395926;19;20529;-56
2023/06/12 01:12:48;;;;;;;8.25;3.47;;;;;;;17.83;57.72;101863.25;7394244;19;20033;-57
2023/06/12 01:15:15;;;;;;;9.43;3.63;;;;;;;17.78;57.87;101858.28;7396233;19;20085;-57
2023/06/12 01:17:42;;;;;;;9.80;3.70;;;;;;;17.78;58.19;101855.63;7396400;19;20015;-57
2023/06/12 01:20:12;;;;;;;8.40;3.42;;;;;;;17.68;58.61;101861.88;7395280;19;20056;-57
2023/06/12 01:23:11;;;;;;;7.93;3.55;;;;;;;17.71;58.64;101858.94;7393796;19;20018;-57
2023/06/12 01:25:56;;;;;;;8.95;3.97;;;;;;;17.60;58.75;101856.31;7394689;19;20024;-57
2023/06/12 01:28:43;;;;;;;10.02;3.60;;;;;;;17.56;58.86;101849.53;7394473;19;20018;-57
2023/06/12 01:31:29;;;;;;;8.95;3.63;;;;;;;17.64;58.95;101857.75;7394984;19;20014;-57
2023/06/12 01:34:12;;;;;;;10.18;3.72;;;;;;;17.54;59.15;101853.16;7394588;19;20047;-57
2023/06/12 01:36:43;;;;;;;7.78;3.55;;;;;;;17.48;59.49;101853.72;7395814;19;20018;-57
2023/06/12 01:39:13;;;;;;;8.95;3.38;;;;;;;17.48;59.40;101855.53;7395370;19;20018;-57
2023/06/12 01:41:41;;;;;;;9.77;3.60;;;;;;;17.49;59.36;101852.72;7394209;19;20022;-57
2023/06/12 01:44:09;;;;;;;6.50;3.50;;;;;;;17.47;59.46;101852.00;7395719;19;20026;-57
2023/06/12 01:46:36;;;;;;;8.75;3.53;;;;;;;17.38;59.35;101859.97;7394883;19;20031;-58
2023/06/12 01:49:06;;;;;;;10.45;4.07;;;;;;;17.36;59.78;101851.22;7395102;19;20019;-51
2023/06/12 01:51:33;;;;;;;8.00;3.67;;;;;;;17.42;59.46;101848.88;7394054;19;20018;-58
2023/06/12 01:54:03;;;;;;;9.40;3.83;;;;;;;17.43;59.75;101847.03;7393934;19;20419;-59
2023/06/12 01:56:30;;;;;;;7.28;3.70;;;;;;;17.35;59.84;101847.69;7394949;19;20071;-58
2023/06/12 01:58:57;;;;;;;7.75;3.70;;;;;;;17.30;60.10;101848.09;7394786;19;20443;-58
2023/06/12 02:01:26;;;;;;;9.77;4.10;;;;;;;17.28;60.27;101852.72;7392169;19;20038;-57
2023/06/12 02:03:56;;;;;;;8.82;3.92;;;;;;;17.18;60.47;101846.44;7394906;19;20043;-58
2023/06/12 02:06:23;;;;;;;9.10;3.75;;;;;;;17.21;60.18;101843.53;7392581;19;20354;-59
2023/06/12 02:08:50;;;;;;;9.77;3.78;;;;;;;17.22;60.32;101847.88;7394757;19;20019;-59
2023/06/12 02:11:18;;;;;;;8.38;3.88;;;;;;;17.20;60.62;101852.50;7391673;19;20014;-59
2023/06/12 02:13:45;;;;;;;12.57;4.45;;;;;;;17.21;60.48;101848.88;7394712;19;20093;-60
2023/06/12 02:16:14;;;;;;;13.80;4.05;;;;;;;17.15;60.67;101843.19;7394256;19;20034;-58
2023/06/12 02:18:42;;;;;;;9.07;3.88;;;;;;;17.10;60.95;101840.03;7394499;19;20092;-59
2023/06/12 02:21:09;;;;;;;9.52;3.92;;;;;;;17.10;61.11;101842.72;7390448;19;20023;-56
2023/06/12 02:23:37;;;;;;;8.02;3.97;;;;;;;17.03;61.49;101837.88;7393659;19;20035;-55
2023/06/12 02:26:04;;;;;;;9.48;3.78;;;;;;;16.95;61.53;101834.16;7394062;19;20483;-56
2023/06/12 02:28:31;;;;;;;9.90;4.20;;;;;;;16.94;61.56;101841.31;7393768;19;20747;-51
2023/06/12 02:30:58;;;;;;;8.38;3.95;;;;;;;16.94;61.73;101841.31;7393471;19;20026;-58
2023/06/12 02:33:27;;;;;;;8.40;3.95;;;;;;;16.98;61.31;101837.41;7391218;19;20788;-59
2023/06/12 02:35:54;;;;;;;8.80;3.83;;;;;;;16.91;62.07;101843.41;7394154;19;20064;-56
2023/06/12 02:38:21;;;;;;;11.73;4.60;;;;;;;16.89;61.73;101845.34;7391792;19;20459;-56
2023/06/12 02:40:49;;;;;;;9.23;4.05;;;;;;;16.85;62.17;101844.75;7391186;19;20085;-56
2023/06/12 02:43:16;;;;;;;10.45;4.22;;;;;;;16.79;62.13;101843.44;7391485;19;20039;-54
2023/06/12 02:45:43;;;;;;;10.25;4.40;;;;;;;16.79;62.31;101845.28;7393207;19;20031;-54
2023/06/12 02:48:10;;;;;;;9.48;4.32;;;;;;;16.73;62.38;101843.94;7393088;19;20018;-53
2023/06/12 02:50:37;;;;;;;7.60;3.65;;;;;;;16.78;62.44;101839.03;7392910;19;20010;-53
2023/06/12 02:53:04;;;;;;;7.95;4.07;;;;;;;16.76;62.29;101841.03;7390906;19;20026;-55
2023/06/12 02:55:32;;;;;;;8.13;4.20;;;;;;;16.73;62.63;101846.63;7392941;19;20082;-50
2023/06/12 02:57:59;;;;;;;7.63;4.10;;;;;;;16.67;62.80;101849.75;7392781;19;20047;-49
2023/06/12 03:00:26;;;;;;;9.35;3.80;;;;;;;16.64;62.89;101846.50;7392380;19;20376;-49
2023/06/12 03:02:55;;;;;;;8.98;4.28;;;;;;;16.61;62.87;101847.59;7390563;19;20022;-49
2023/06/12 03:05:25;;;;;;;10.10;4.13;;;;;;;16.59;62.80;101849.53;7392797;19;20074;-54
2023/06/12 03:07:53;;;;;;;9.60;4.15;;;;;;;16.60;63.08;101848.56;7392520;19;20039;-51
2023/06/12 03:10:20;;;;;;;11.00;4.13;;;;;;;16.64;62.92;101849.19;7392878;19;20014;-50
2023/06/12 03:12:47;;;;;;;11.38;4.25;;;;;;;16.66;62.89;101847.22;7390361;19;20014;-58
2023/06/12 03:15:16;;;;;;;10.38;4.32;;;;;;;16.64;62.77;101852.69;7391309;19;20015;-58
2023/06/12 03:17:44;;;;;;;10.07;4.55;;;;;;;16.61;62.89;101850.28;7391088;19;20029;-56
2023/06/12 03:20:14;;;;;;;13.30;4.95;;;;;;;16.61;63.05;101849.44;7391952;19;20090;-59
2023/06/12 03:22:42;;;;;;;9.38;4.57;;;;;;;16.56;63.02;101847.97;7387836;19;20078;-59
2023/06/12 03:25:10;;;;;;;10.02;4.30;;;;;;;16.53;63.28;101844.69;7392523;19;20010;-59
2023/06/12 03:27:37;;;;;;;10.32;4.57;;;;;;;16.61;62.95;101850.28;7391792;19;20022;-58
2023/06/12 03:30:05;;;;;;;12.95;4.80;;;;;;;16.59;63.17;101846.84;7391922;19;20046;-59
2023/06/12 03:32:33;;;;;;;12.32;4.88;;;;;;;16.52;63.34;101851.88;7387950;19;20385;-59
2023/06/12 03:35:00;;;;;;;9.02;4.13;;;;;;;16.49;63.43;101849.44;7392535;19;20094;-59
2023/06/12 03:37:28;;;;;;;9.05;4.45;;;;;;;16.49;63.42;101854.78;7391632;19;20014;-59
2023/06/12 03:39:55;;;;;;;10.35;4.70;;;;;;;16.53;63.37;101852.72;7390231;19;20015;-59
2023/06/12 03:42:22;;;;;;;13.40;4.75;;;;;;;16.50;63.65;101852.97;7389820;19;20019;-59
2023/06/12 03:44:50;;;;;;;12.35;5.15;;;;;;;16.49;63.45;101849.44;7391774;19;20019;-59
2023/06/12 03:47:17;;;;;;;17.17;4.50;;;;;;;16.51;63.57;101847.47;7390993;19;20022;-59
2023/06/12 03:49:46;;;;;;;10.52;4.65;;;;;;;16.48;63.90;101842.41;7391372;19;20011;-59
2023/06/12 03:52:13;;;;;;;10.23;4.65;;;;;;;16.55;63.39;101850.75;7390019;19;20038;-58
2023/06/12 03:54:40;;;;;;;8.40;4.43;;;;;;;16.61;63.28;101850.28;7391282;19;20011;-58
2023/06/12 03:57:08;;;;;;;8.00;4.20;;;;;;;16.63;63.02;101852.81;7391376;19;20042;-58
2023/06/12 03:59:35;;;;;;;9.07;4.50;;;;;;;16.61;63.38;101860.13;7389027;19;20022;-58
2023/06/12 04:02:02;;;;;;;9.82;4.40;;;;;;;16.59;63.51;101860.22;7389191;19;20113;-58
2023/06/12 04:04:31;;;;;;;9.60;4.45;;;;;;;16.55;63.57;101861.44;7390926;19;20050;-58
2023/06/12 04:06:59;;;;;;;11.38;5.00;;;;;;;16.54;63.57;101857.94;7391142;19;20085;-57
2023/06/12 04:09:27;;;;;;;11.88;5.10;;;;;;;16.64;63.31;101859.88;7391458;19;20026;-57
2023/06/12 04:11:54;;;;;;;8.77;4.38;;;;;;;16.69;63.02;101858.50;7389052;19;20527;-57
2023/06/12 04:14:21;;;;;;;10.43;4.70;;;;;;;16.61;63.35;101855.63;7390658;19;20470;-56
2023/06/12 04:16:48;;;;;;;9.93;4.88;;;;;;;16.68;63.01;101861.31;7390731;19;20018;-56
2023/06/12 04:19:16;;;;;;;12.75;4.80;;;;;;;16.81;62.75;101857.53;7390282;19;20502;-53
2023/06/12 04:21:45;;;;;;;9.30;4.53;;;;;;;16.76;62.95;101853.56;7387951;19;20043;-52
2023/06/12 04:24:19;;;;;;;10.00;4.72;;;;;;;16.84;62.75;101863.63;7390413;19;20368;-53
2023/06/12 04:26:48;;;;;;;11.60;4.95;;;;;;;16.81;62.79;101860.19;7390558;19;20090;-52
2023/06/12 04:29:16;;;;;;;9.13;4.20;;;;;;;16.83;62.94;101859.22;7390431;19;20329;-56
2023/06/12 04:31:43;;;;;;;10.25;5.35;;;;;;;16.77;63.01;101852.56;7387275;19;20018;-53
2023/06/12 04:34:15;;;;;;;9.85;4.80;;;;;;;16.81;62.90;101854.84;7395253;19;20011;-55
2023/06/12 04:36:43;;;;;;;8.82;4.63;;;;;;;16.88;62.65;101860.56;7398018;19;20014;-55
2023/06/12 04:39:11;;;;;;;10.18;4.97;;;;;;;16.90;62.78;101855.06;7397194;19;20010;-54
2023/06/12 04:41:40;;;;;;;9.60;4.68;;;;;;;16.81;62.79;101854.84;7394758;19;20035;-54
2023/06/12 04:44:08;;;;;;;8.57;5.00;;;;;;;16.84;62.86;101856.44;7396024;19;20018;-47
2023/06/12 04:46:35;;;;;;;8.93;4.30;;;;;;;16.89;63.00;101856.91;7395827;19;20022;-59
2023/06/12 04:49:02;;;;;;;9.77;4.50;;;;;;;17.06;62.26;101852.84;7397702;19;20074;-59
2023/06/12 04:51:30;;;;;;;11.95;4.82;;;;;;;17.19;61.56;101861.53;7394288;19;20018;-59
2023/06/12 04:54:01;;;;;;;9.95;4.78;;;;;;;17.27;61.32;101858.19;7395213;19;20051;-57
2023/06/12 04:56:31;;;;;;;8.60;4.80;;;;;;;17.28;61.33;101855.41;7396995;19;20014;-57
2023/06/12 04:58:59;;;;;;;11.45;4.57;;;;;;;17.37;61.21;101858.28;7396590;19;20827;-57
2023/06/12 05:01:26;;;;;;;8.73;4.45;;;;;;;17.31;61.32;101854.28;7392866;19;20062;-57
2023/06/12 05:03:53;;;;;;;10.05;5.20;;;;;;;17.32;61.38;101860.47;7397191;19;20022;-57
2023/06/12 05:06:21;;;;;;;10.38;4.85;;;;;;;17.32;61.46;101852.44;7396882;19;20019;-57
2023/06/12 05:08:48;;;;;;;9.18;4.65;;;;;;;17.35;61.40;101863.75;7395136;19;20015;-58
2023/06/12 05:11:16;;;;;;;10.05;4.68;;;;;;;17.30;61.51;101861.47;7393999;19;20026;-58
2023/06/12 05:13:43;;;;;;;10.10;5.32;;;;;;;17.26;61.57;101859.19;7396484;19;20014;-58
2023/06/12 05:16:10;;;;;;;9.07;4.50;;;;;;;17.23;61.91;101862.97;7396268;19;20022;-57
2023/06/12 05:18:37;;;;;;;10.40;5.57;;;;;;;17.28;61.82;101859.88;7396979;19;20029;-58
2023/06/12 05:21:06;;;;;;;9.30;4.88;;;;;;;17.28;62.12;101862.56;7393945;19;20025;-58
2023/06/12 05:23:33;;;;;;;10.60;4.95;;;;;;;17.30;62.17;101860.63;7394841;19;20025;-59
2023/06/12 05:26:01;;;;;;;10.50;5.50;;;;;;;17.46;62.09;101869.03;7394025;19;20516;-58
2023/06/12 05:28:28;;;;;;;8.63;5.03;;;;;;;17.59;61.89;101857.28;7395944;19;20007;-59
2023/06/12 05:30:55;;;;;;;9.40;4.95;;;;;;;17.67;62.08;101863.69;7395141;19;20022;-58
2023/06/12 05:33:22;;;;;;;11.55;5.30;;;;;;;17.71;61.81;101865.13;7393624;19;20027;-59
2023/06/12 05:35:49;;;;;;;10.05;5.38;;;;;;;17.74;61.89;101864.88;7395312;19;20022;-59
2023/06/12 05:38:17;;;;;;;8.20;5.10;;;;;;;17.88;61.62;101865.53;7394462;19;20019;-59
2023/06/12 05:40:44;;;;;;;9.32;5.07;;;;;;;17.97;61.58;101862.91;7392437;19;20101;-59
2023/06/12 05:43:11;;;;;;;10.52;5.05;;;;;;;18.05;61.43;101864.03;7393659;19;20018;-59
2023/06/12 05:45:38;;;;;;;9.00;5.45;;;;;;;18.06;61.31;101858.56;7392819;19;20017;-58
2023/06/12 05:48:05;;;;;;;10.35;5.18;;;;;;;18.18;60.89;101865.53;7395480;19;20022;-58
2023/06/12 05:50:33;;;;;;;12.48;5.25;;;;;;;18.29;60.24;101867.25;7394540;19;20083;-58
2023/06/12 05:53:05;;;;;;;11.98;5.68;;;;;;;18.39;59.99;101867.28;7393306;19;20015;-58
2023/06/12 05:55:35;;;;;;;9.20;5.05;;;;;;;18.42;60.10;101864.31;7395219;19;20016;-58
2023/06/12 05:58:02;;;;;;;11.60;5.50;;;;;;;18.40;60.08;101869.84;7394846;19;20506;-58
2023/06/12 06:00:33;;;;;;;11.50;6.07;;;;;;;18.46;60.30;101860.38;7393449;19;20026;-58
2023/06/12 06:03:04;;;;;;;12.07;5.80;;;;;;;18.51;60.24;101866.19;7392628;19;20055;-58
2023/06/12 06:05:31;;;;;;;11.25;6.13;;;;;;;18.49;60.31;101863.63;7393633;19;20018;-56
2023/06/12 06:07:58;;;;;;;9.55;5.05;;;;;;;18.52;60.10;101871.41;7393455;19;20018;-56
2023/06/12 06:10:26;;;;;;;10.32;5.70;;;;;;;18.65;60.28;101863.09;7394563;19;20071;-56
2023/06/12 06:12:54;;;;;;;11.48;5.75;;;;;;;18.75;60.25;101871.22;7392592;19;20064;-55
2023/06/12 06:15:21;;;;;;;10.13;5.18;;;;;;;18.78;60.22;101878.16;7394078;19;20014;-50
2023/06/12 06:17:48;;;;;;;11.40;6.07;;;;;;;18.86;60.05;101875.63;7394198;19;20494;-55
2023/06/12 06:20:17;;;;;;;12.07;5.57;;;;;;;18.95;60.10;101880.13;7394728;19;20022;-57
2023/06/12 06:22:44;;;;;;;11.35;5.85;;;;;;;19.02;60.04;101873.22;7391735;19;20019;-57
2023/06/12 06:25:13;;;;;;;12.32;6.88;;;;;;;19.06;59.71;101880.00;7394411;19;20138;-50
2023/06/12 06:27:41;;;;;;;9.95;5.55;;;;;;;19.12;59.39;101876.75;7394380;19;20033;-57
2023/06/12 06:30:09;;;;;;;15.10;8.27;;;;;;;19.21;59.67;101885.81;7393476;19;20078;-54
2023/06/12 06:32:36;;;;;;;12.20;6.18;;;;;;;19.30;58.86;101882.25;7391931;19;20439;-54
2023/06/12 06:35:03;;;;;;;11.70;6.82;;;;;;;19.39;58.12;101885.94;7393908;19;20094;-54
2023/06/12 06:37:31;;;;;;;11.18;6.00;;;;;;;19.44;57.31;101897.09;7393832;19;20014;-54
2023/06/12 06:39:58;;;;;;;12.23;6.18;;;;;;;19.45;57.46;101891.56;7394247;19;20010;-54
2023/06/12 06:42:28;;;;;;;12.07;6.50;;;;;;;19.54;57.27;101895.25;7391098;19;20026;-53
2023/06/12 06:44:55;;;;;;;13.13;6.00;;;;;;;19.62;57.22;101895.41;7393758;19;20018;-54
2023/06/12 06:47:22;;;;;;;13.05;6.47;;;;;;;19.70;56.61;101886.63;7393693;19;20343;-53
2023/06/12 06:49:49;;;;;;;14.07;6.75;;;;;;;19.82;56.62;101884.63;7390663;19;20022;-55
2023/06/12 06:52:18;;;;;;;11.40;6.95;;;;;;;19.85;56.70;101889.72;7391288;19;20010;-55
2023/06/12 06:54:45;;;;;;;12.40;6.43;;;;;;;19.90;56.17;101893.63;7392926;19;20099;-55
2023/06/12 06:57:13;;;;;;;13.45;6.68;;;;;;;19.99;56.10;101897.28;7392703;19;20038;-54
2023/06/12 06:59:40;;;;;;;12.00;6.18;;;;;;;20.04;55.68;101899.56;7393049;19;20033;-55
2023/06/12 07:02:07;;;;;;;14.45;7.07;;;;;;;20.05;55.51;101904.78;7388641;19;20082;-52
2023/06/12 07:04:34;;;;;;;11.23;6.57;;;;;;;20.11;55.35;101900.63;7392436;19;20034;-55
2023/06/12 07:07:03;;;;;;;13.65;6.85;;;;;;;20.14;54.92;101903.88;7392201;19;20010;-56
2023/06/12 07:09:30;;;;;;;12.82;6.47;;;;;;;20.18;55.33;101902.63;7392309;19;20019;-55
2023/06/12 07:11:57;;;;;;;12.38;7.22;;;;;;;20.26;55.05;101901.88;7392371;19;20058;-56
2023/06/12 07:14:24;;;;;;;10.60;5.97;;;;;;;20.35;54.90;101905.50;7392722;19;20019;-56
2023/06/12 07:16:52;;;;;;;10.45;6.22;;;;;;;20.39;54.73;101902.38;7392394;19;20010;-55
2023/06/12 07:19:19;;;;;;;11.05;6.78;;;;;;;20.44;54.38;101900.06;7392106;19;20018;-56
2023/06/12 07:21:46;;;;;;;14.25;6.40;;;;;;;20.50;54.00;101903.22;7390683;19;20026;-58
2023/06/12 07:24:17;;;;;;;11.60;6.40;;;;;;;20.54;54.16;101897.38;7390295;19;20493;-58
2023/06/12 07:26:44;;;;;;;12.93;6.90;;;;;;;20.59;53.96;101900.44;7391917;19;20030;-56
2023/06/12 07:29:12;;;;;;;12.35;6.60;;;;;;;20.67;54.23;101894.31;7391396;19;20043;-57
2023/06/12 07:31:39;;;;;;;12.65;6.50;;;;;;;20.76;54.05;101896.13;7390549;19;20444;-57
2023/06/12 07:34:06;;;;;;;11.35;6.93;;;;;;;20.82;53.57;101897.34;7389433;19;20026;-57
2023/06/12 07:36:35;;;;;;;11.50;6.90;;;;;;;20.86;54.13;101898.72;7391724;19;20031;-57
2023/06/12 07:39:03;;;;;;;12.90;6.90;;;;;;;20.95;53.90;101897.84;7391511;19;20015;-56
2023/06/12 07:41:30;;;;;;;12.18;6.97;;;;;;;21.01;53.42;101899.88;7390548;19;20018;-54
2023/06/12 07:43:57;;;;;;;10.32;6.63;;;;;;;21.13;52.59;101903.19;7390669;19;20022;-56
2023/06/12 07:46:25;;;;;;;12.32;7.15;;;;;;;21.16;52.55;101905.59;7394477;19;20014;-55
2023/06/12 07:48:52;;;;;;;11.70;7.43;;;;;;;21.28;52.59;101896.25;7390940;19;20082;-54
2023/06/12 07:51:20;;;;;;;11.85;7.30;;;;;;;21.35;52.69;101900.06;7390646;19;20042;-55
2023/06/12 07:53:49;;;;;;;13.40;8.30;;;;;;;21.48;51.66;101902.34;7391201;19;20010;-56
2023/06/12 07:56:17;;;;;;;10.10;7.05;;;;;;;21.48;51.63;101899.66;7390881;19;20014;-56
2023/06/12 07:58:46;;;;;;;11.02;7.45;;;;;;;21.49;51.38;101903.22;7391115;19;20046;-54
2023/06/12 08:01:13;;;;;;;12.00;8.00;;;;;;;21.53;51.65;101905.44;7389866;19;20025;-53
2023/06/12 08:03:42;;;;;;;13.80;7.35;;;;;;;21.63;51.50;101898.09;7390716;19;20031;-54
2023/06/12 08:06:11;;;;;;;11.55;7.50;;;;;;;21.66;51.14;101899.63;7389077;19;20022;-57
2023/06/12 08:08:40;;;;;;;10.95;7.45;;;;;;;21.73;50.66;101900.69;7389672;19;20066;-57
2023/06/12 08:11:08;;;;;;;11.70;7.65;;;;;;;21.76;50.13;101904.94;7390129;19;20035;-56
2023/06/12 08:13:36;;;;;;;10.77;7.57;;;;;;;21.79;50.39;101891.16;7390801;19;20027;-57
2023/06/12 08:16:03;;;;;;;12.82;8.15;;;;;;;21.92;50.42;101891.56;7390117;19;20025;-57
2023/06/12 08:18:30;;;;;;;12.35;8.10;;;;;;;22.03;50.06;101893.97;7390387;19;20294;-57
2023/06/12 08:20:58;;;;;;;11.60;7.03;;;;;;;22.13;50.20;101888.44;7389211;19;20635;-57
2023/06/12 08:23:25;;;;;;;16.05;7.57;;;;;;;22.18;49.20;101885.31;7388674;19;20023;-57
2023/06/12 08:25:52;;;;;;;11.73;7.30;;;;;;;22.25;48.71;101889.91;7389984;19;20060;-56
2023/06/12 08:28:19;;;;;;;11.60;8.05;;;;;;;22.32;48.39;101890.97;7390159;19;20136;-57
2023/06/12 08:30:46;;;;;;;11.68;7.40;;;;;;;22.46;47.84;101894.88;7389044;19;20014;-57
2023/06/12 08:33:15;;;;;;;11.13;7.05;;;;;;;22.57;47.76;101896.44;7388155;19;20031;-56
2023/06/12 08:35:43;;;;;;;9.90;6.78;;;;;;;22.79;47.01;101887.72;7390116;19;20015;-54
2023/06/12 08:38:10;;;;;;;12.75;7.75;;;;;;;22.97;46.50;101884.94;7389810;19;20184;-57
2023/06/12 08:40:37;;;;;;;11.60;7.28;;;;;;;22.92;46.72;101891.81;7389525;19;20021;-57
2023/06/12 08:43:05;;;;;;;9.13;6.55;;;;;;;22.85;46.19;101881.63;7385763;19;20051;-56
2023/06/12 08:45:37;;;;;;;12.23;6.97;;;;;;;22.88;46.44;101883.19;7389534;19;20039;-57
2023/06/12 08:48:06;;;;;;;10.10;6.97;;;;;;;22.90;46.17;101878.47;7389178;19;20022;-57
2023/06/12 08:50:34;;;;;;;11.05;6.50;;;;;;;23.17;44.46;101877.34;7387772;19;20082;-57
2023/06/12 08:53:03;;;;;;;10.50;6.72;;;;;;;23.33;43.75;101879.19;7386249;19;20027;-57
2023/06/12 08:55:32;;;;;;;11.80;6.53;;;;;;;23.23;44.28;101879.34;7389537;19;20022;-57
2023/06/12 08:58:00;;;;;;;12.80;6.72;;;;;;;23.22;44.08;101880.38;7390609;19;20138;-57
2023/06/12 09:00:27;;;;;;;9.52;6.40;;;;;;;23.27;43.89;101882.56;7387824;19;20015;-57
2023/06/12 09:02:56;;;;;;;11.77;6.22;;;;;;;23.46;43.06;101884.91;7386546;19;20018;-57
2023/06/12 09:05:27;;;;;;;11.30;5.93;;;;;;;23.30;43.14;101883.06;7389720;19;20035;-56
2023/06/12 09:07:57;;;;;;;12.02;6.40;;;;;;;23.27;43.42;101887.97;7386795;19;20018;-57
2023/06/12 09:10:25;;;;;;;10.00;6.38;;;;;;;23.30;42.97;101895.75;7389419;19;20122;-56
2023/06/12 09:12:56;;;;;;;12.57;6.47;;;;;;;23.29;43.27;101884.09;7387212;19;20010;-56
2023/06/12 09:15:24;;;;;;;10.55;6.95;;;;;;;23.29;44.02;101888.66;7389125;19;20018;-55
2023/06/12 09:17:54;;;;;;;10.07;6.55;;;;;;;23.40;43.69;101888.31;7388707;19;20043;-55
2023/06/12 09:20:28;;;;;;;10.90;6.60;;;;;;;23.46;43.45;101890.31;7391456;19;20019;-56
2023/06/12 09:23:00;;;;;;;11.27;6.82;;;;;;;23.63;43.56;101885.78;7393576;19;20018;-56
2023/06/12 09:25:40;;;;;;;11.43;7.00;;;;;;;24.07;42.11;101880.78;7395883;19;20015;-56
2023/06/12 09:28:13;;;;;;;12.38;6.95;;;;;;;23.94;42.78;101875.06;7396303;19;20011;-57
2023/06/12 09:30:41;;;;;;;8.90;6.55;;;;;;;23.90;42.49;101875.59;7394527;19;20018;-58
2023/06/12 09:33:09;;;;;;;10.80;7.05;;;;;;;23.93;43.12;101889.63;7393193;19;20045;-56
2023/06/12 09:35:51;;;;;;;11.35;7.05;;;;;;;23.93;42.59;101886.09;7395616;19;20030;-57
2023/06/12 09:38:27;;;;;;;10.65;6.75;;;;;;;23.85;43.19;101892.38;7398578;19;20570;-57
2023/06/12 09:40:57;;;;;;;10.48;7.03;;;;;;;23.76;43.44;101893.38;7394348;19;20018;-55
2023/06/12 09:43:28;;;;;;;14.25;7.00;;;;;;;23.66;44.15;101889.97;7393123;19;20018;-57
2023/06/12 09:45:55;;;;;;;13.68;7.18;;;;;;;23.58;43.63;101894.41;7394757;19;20029;-56
2023/06/12 09:48:24;;;;;;;18.63;7.63;;;;;;;23.48;43.98;101888.31;7395244;19;20038;-57
2023/06/12 09:50:52;;;;;;;11.63;6.75;;;;;;;23.47;43.81;101897.44;7394851;19;20019;-57
2023/06/12 09:53:22;;;;;;;12.77;7.10;;;;;;;23.44;44.11;101900.50;7392642;19;20493;-56
2023/06/12 09:55:51;;;;;;;12.95;7.43;;;;;;;23.53;44.08;101896.75;7394700;19;20090;-57
2023/06/12 09:58:20;;;;;;;11.05;6.47;;;;;;;23.66;44.46;101890.88;7395117;19;20082;-57
2023/06/12 10:00:48;;;;;;;11.27;6.47;;;;;;;23.95;43.10;101876.75;7394093;19;20022;-55
2023/06/12 10:03:19;;;;;;;11.73;6.00;;;;;;;24.30;42.55;101874.59;7392820;19;20039;-57
2023/06/12 10:05:51;;;;;;;11.70;6.28;;;;;;;24.51;41.51;101871.34;7395105;19;20034;-56
2023/06/12 10:08:18;;;;;;;11.20;6.00;;;;;;;24.46;40.61;101871.88;7394145;19;20082;-57
2023/06/12 10:10:48;;;;;;;9.88;5.78;;;;;;;24.40;39.30;101877.97;7394179;19;20018;-57
2023/06/12 10:13:16;;;;;;;8.27;5.40;;;;;;;24.39;38.42;101873.59;7392156;19;20026;-56
2023/06/12 10:15:44;;;;;;;8.15;5.28;;;;;;;24.38;38.61;101871.84;7394160;19;20035;-56
2023/06/12 10:18:12;;;;;;;8.88;4.95;;;;;;;24.70;37.52;101870.03;7394078;19;20023;-56
2023/06/12 10:20:41;;;;;;;8.75;5.82;;;;;;;24.87;37.03;101868.91;7392034;19;20027;-57
2023/06/12 10:23:09;;;;;;;17.27;5.80;;;;;;;25.08;35.95;101865.53;7391845;19;20456;-57
2023/06/12 10:25:37;;;;;;;10.15;5.78;;;;;;;25.01;35.88;101868.13;7394544;19;20011;-57
2023/06/12 10:28:06;;;;;;;10.25;5.63;;;;;;;25.04;35.89;101869.63;7393837;19;20022;-57
2023/06/12 10:30:34;;;;;;;13.18;5.32;;;;;;;24.93;35.44;101861.94;7392252;19;20124;-57
2023/06/12 10:33:08;;;;;;;13.73;5.80;;;;;;;25.09;35.18;101864.50;7391680;19;20039;-57
2023/06/12 10:35:35;;;;;;;9.88;5.65;;;;;;;25.20;34.22;101852.44;7393844;19;20010;-57
2023/06/12 10:38:03;;;;;;;9.45;5.50;;;;;;;25.37;33.80;101853.94;7393452;19;20025;-57
2023/06/12 10:40:30;;;;;;;9.77;5.68;;;;;;;25.28;33.67;101855.91;7394237;19;20014;-56
2023/06/12 10:43:21;;;;;;;13.30;6.15;;;;;;;25.60;32.46;101859.31;7389761;19;20018;-58
2023/06/12 10:46:10;;;;;;;12.65;5.82;;;;;;;25.86;32.08;101842.63;7393705;19;20030;-57
2023/06/12 10:48:47;;;;;;;9.52;5.70;;;;;;;26.03;31.84;101847.88;7393066;19;20018;-55
2023/06/12 10:51:14;;;;;;;9.48;5.88;;;;;;;25.88;32.76;101842.47;7392185;19;20018;-55
2023/06/12 10:53:44;;;;;;;10.65;5.72;;;;;;;25.81;33.54;101845.06;7392960;19;20030;-55
2023/06/12 10:56:11;;;;;;;9.43;5.60;;;;;;;25.41;33.92;101836.31;7393885;19;20155;-53
2023/06/12 10:58:40;;;;;;;8.70;5.40;;;;;;;25.13;34.21;101837.91;7393164;19;20134;-55
2023/06/12 11:01:10;;;;;;;9.38;5.63;;;;;;;24.94;34.62;101829.22;7391724;19;20022;-55
2023/06/12 11:03:42;;;;;;;13.80;5.75;;;;;;;25.02;35.05;101836.44;7390163;19;20105;-54
2023/06/12 11:06:15;;;;;;;9.10;5.72;;;;;;;25.03;34.78;101841.69;7393006;19;20019;-54
2023/06/12 11:08:48;;;;;;;7.25;5.05;;;;;;;25.13;33.82;101835.19;7392450;19;20022;-57
2023/06/12 11:11:16;;;;;;;11.73;5.25;;;;;;;25.19;33.69;101835.31;7391553;19;20035;-55
2023/06/12 11:13:45;;;;;;;9.27;5.53;;;;;;;25.04;33.10;101837.94;7392861;19;20022;-54
2023/06/12 11:16:16;;;;;;;9.48;5.22;;;;;;;24.92;33.73;101833.16;7390817;19;20022;-55
2023/06/12 11:18:43;;;;;;;9.50;5.47;;;;;;;24.89;33.72;101834.34;7392602;19;20014;-55
2023/06/12 11:21:11;;;;;;;10.02;4.97;;;;;;;25.12;33.82;101837.06;7391062;19;20018;-53
2023/06/12 11:23:40;;;;;;;9.95;5.10;;;;;;;25.35;33.55;101830.78;7391317;19;20495;-55
2023/06/12 11:26:08;;;;;;;10.57;5.28;;;;;;;25.58;32.19;101831.56;7390556;19;20027;-55